Terminal Aerodrome Forecast
Issued by NWS

Home | Current Version | Previous Version | Text Only | Print | Product List | Glossary On
Versions: 1 2 3 4 5 6 7 8 9 10 11 12 13 14
000
FTUS45 KCYS 161700
TAFAIA
TAF
KAIA 161727Z 1618/1718 31025G35KT P6SM VCSH BKN015
     FM162200 36015G25KT P6SM SCT030
     FM170200 VRB05KT P6SM SCT050
     FM171000 16010KT 5SM BR BKN020
     FM171600 18010KT P6SM BKN020=

USA.gov is the U.S. government's official web portal to all federal, state and local government web resources and services.